Main page
METAR-TAF:

METAR-TAF

Airports :

Hong Kong International Airport

Hong Kong, China

latitude: 22-19N, longitude: 113-55E, elevation: 9 m

Current weather observation

The report was made 7 minutes ago, at 03:00 UTC
Wind 14 kt from the East
Temperature 22°C
Humidity 69%
Pressure 1021 hPa
Visibility 10 km or more
Few clouds at a height of 1500 ft
Scattered clouds at a height of 2800 ft

METAR: VHHH 150300Z 08014KT 9999 FEW015 SCT028 22/16 Q1021 NOSIG

Time: 11:07 (03:07 UTC)

Forecast

The report was made 4 hours and 7 minutes ago, at 23:00 UTC
Forecast valid from 15 at 00 UTC to 16 at 06 UTC
Wind 10 kt from the East
Visibility: 9000 m
Few clouds at a height of 2000 ft
Scattered clouds at a height of 4000 ft
Temporary
from 16 at 04 UTC to 16 at 06 UTC
Wind 10 kt from the West

TAF: VHHH 142300Z 1500/1606 10010KT 9000 FEW020 SCT040 TX23/1506Z TX24/1606Z TN20/1523Z TEMPO 1604/1606 27010KT

Weather observations and forecasts of more than 4000 airports (METAR and TAF reports).

The available stations are represented by yellow and red dots on the map.

Hover mouse over dot to see the name of the station.

Then click to see weather observations and forecasts.

To change the map : click on the green buttons with a black cross to zoom in, on the green button with a dash to zoom out, or on the green arrows for adjacent maps.


METAR-TAF: